sensor_id;sensor_type;location;lat;lon;timestamp;P1;durP1;ratioP1;P2;durP2;ratioP2
9783;SDS011;4931;44.874;-1.092;2023-04-02T00:00:30;25.70;;;4.63;;
9783;SDS011;4931;44.874;-1.092;2023-04-02T00:03:03;25.70;;;2.63;;
9783;SDS011;4931;44.874;-1.092;2023-04-02T00:05:44;26.80;;;2.97;;
9783;SDS011;4931;44.874;-1.092;2023-04-02T00:11:20;22.75;;;2.70;;
9783;SDS011;4931;44.874;-1.092;2023-04-02T00:14:00;21.80;;;3.15;;
9783;SDS011;4931;44.874;-1.092;2023-04-02T00:16:26;18.77;;;2.45;;
9783;SDS011;4931;44.874;-1.092;2023-04-02T00:18:54;19.60;;;2.63;;
9783;SDS011;4931;44.874;-1.092;2023-04-02T00:23:52;23.55;;;2.92;;
9783;SDS011;4931;44.874;-1.092;2023-04-02T00:28:52;19.88;;;2.70;;
9783;SDS011;4931;44.874;-1.092;2023-04-02T00:31:18;18.95;;;2.55;;
9783;SDS011;4931;44.874;-1.092;2023-04-02T00:33:44;21.90;;;3.53;;
9783;SDS011;4931;44.874;-1.092;2023-04-02T00:36:11;24.17;;;3.35;;
9783;SDS011;4931;44.874;-1.092;2023-04-02T00:38:36;18.58;;;2.80;;
9783;SDS011;4931;44.874;-1.092;2023-04-02T00:41:05;21.50;;;2.78;;
9783;SDS011;4931;44.874;-1.092;2023-04-02T00:43:34;18.55;;;2.45;;
9783;SDS011;4931;44.874;-1.092;2023-04-02T00:46:15;29.27;;;3.10;;
9783;SDS011;4931;44.874;-1.092;2023-04-02T00:51:44;22.45;;;2.75;;
9783;SDS011;4931;44.874;-1.092;2023-04-02T00:54:11;19.60;;;2.60;;
9783;SDS011;4931;44.874;-1.092;2023-04-02T00:56:44;24.50;;;2.83;;
9783;SDS011;4931;44.874;-1.092;2023-04-02T00:59:19;23.55;;;2.97;;
9783;SDS011;4931;44.874;-1.092;2023-04-02T01:02:25;22.50;;;3.00;;
9783;SDS011;4931;44.874;-1.092;2023-04-02T01:04:50;26.50;;;3.33;;
9783;SDS011;4931;44.874;-1.092;2023-04-02T01:15:58;21.98;;;3.20;;
9783;SDS011;4931;44.874;-1.092;2023-04-02T01:21:09;23.98;;;3.55;;
9783;SDS011;4931;44.874;-1.092;2023-04-02T01:23:41;19.00;;;4.05;;
9783;SDS011;4931;44.874;-1.092;2023-04-02T01:29:00;24.73;;;3.38;;
9783;SDS011;4931;44.874;-1.092;2023-04-02T01:31:29;19.20;;;3.22;;
9783;SDS011;4931;44.874;-1.092;2023-04-02T01:33:57;23.75;;;3.08;;
9783;SDS011;4931;44.874;-1.092;2023-04-02T01:39:03;20.50;;;2.80;;
9783;SDS011;4931;44.874;-1.092;2023-04-02T01:41:45;25.67;;;2.92;;
9783;SDS011;4931;44.874;-1.092;2023-04-02T01:44:32;20.60;;;2.90;;
9783;SDS011;4931;44.874;-1.092;2023-04-02T01:47:11;25.35;;;2.70;;
9783;SDS011;4931;44.874;-1.092;2023-04-02T01:49:43;26.92;;;3.38;;
9783;SDS011;4931;44.874;-1.092;2023-04-02T01:52:16;21.98;;;3.10;;
9783;SDS011;4931;44.874;-1.092;2023-04-02T01:54:49;19.33;;;2.70;;
9783;SDS011;4931;44.874;-1.092;2023-04-02T01:57:16;23.98;;;2.80;;
9783;SDS011;4931;44.874;-1.092;2023-04-02T01:59:42;25.33;;;3.03;;
9783;SDS011;4931;44.874;-1.092;2023-04-02T02:02:12;22.40;;;2.90;;
9783;SDS011;4931;44.874;-1.092;2023-04-02T02:04:39;16.45;;;2.85;;
9783;SDS011;4931;44.874;-1.092;2023-04-02T02:07:05;25.42;;;3.70;;
9783;SDS011;4931;44.874;-1.092;2023-04-02T02:09:38;20.42;;;2.88;;
9783;SDS011;4931;44.874;-1.092;2023-04-02T02:12:05;18.08;;;3.28;;
9783;SDS011;4931;44.874;-1.092;2023-04-02T02:14:31;20.30;;;2.78;;
9783;SDS011;4931;44.874;-1.092;2023-04-02T02:16:59;23.27;;;3.45;;
9783;SDS011;4931;44.874;-1.092;2023-04-02T02:19:31;20.90;;;2.53;;
9783;SDS011;4931;44.874;-1.092;2023-04-02T02:24:32;25.17;;;2.72;;
9783;SDS011;4931;44.874;-1.092;2023-04-02T02:30:11;30.25;;;3.50;;
9783;SDS011;4931;44.874;-1.092;2023-04-02T02:33:04;26.02;;;4.00;;
9783;SDS011;4931;44.874;-1.092;2023-04-02T02:35:48;29.45;;;3.78;;
9783;SDS011;4931;44.874;-1.092;2023-04-02T02:40:57;29.27;;;3.75;;
9783;SDS011;4931;44.874;-1.092;2023-04-02T02:43:28;29.42;;;3.88;;
9783;SDS011;4931;44.874;-1.092;2023-04-02T02:45:55;32.65;;;4.13;;
9783;SDS011;4931;44.874;-1.092;2023-04-02T02:48:22;29.38;;;3.88;;
9783;SDS011;4931;44.874;-1.092;2023-04-02T02:50:52;25.42;;;3.28;;
9783;SDS011;4931;44.874;-1.092;2023-04-02T02:53:23;24.02;;;3.28;;
9783;SDS011;4931;44.874;-1.092;2023-04-02T02:55:50;30.48;;;3.55;;
9783;SDS011;4931;44.874;-1.092;2023-04-02T02:58:22;28.73;;;3.70;;
9783;SDS011;4931;44.874;-1.092;2023-04-02T03:00:51;28.85;;;3.75;;
9783;SDS011;4931;44.874;-1.092;2023-04-02T03:03:19;30.90;;;3.88;;
9783;SDS011;4931;44.874;-1.092;2023-04-02T03:05:51;29.58;;;3.83;;
9783;SDS011;4931;44.874;-1.092;2023-04-02T03:08:27;29.95;;;4.20;;
9783;SDS011;4931;44.874;-1.092;2023-04-02T03:10:59;26.10;;;4.05;;
9783;SDS011;4931;44.874;-1.092;2023-04-02T03:13:47;29.55;;;3.63;;
9783;SDS011;4931;44.874;-1.092;2023-04-02T03:16:24;26.02;;;3.20;;
9783;SDS011;4931;44.874;-1.092;2023-04-02T03:22:00;17.95;;;2.47;;
9783;SDS011;4931;44.874;-1.092;2023-04-02T03:24:38;23.20;;;3.00;;
9783;SDS011;4931;44.874;-1.092;2023-04-02T03:27:16;23.75;;;2.88;;
9783;SDS011;4931;44.874;-1.092;2023-04-02T03:29:48;22.33;;;3.22;;
9783;SDS011;4931;44.874;-1.092;2023-04-02T03:32:24;26.95;;;3.38;;
9783;SDS011;4931;44.874;-1.092;2023-04-02T03:34:54;21.40;;;3.22;;
9783;SDS011;4931;44.874;-1.092;2023-04-02T03:39:54;26.65;;;3.50;;
9783;SDS011;4931;44.874;-1.092;2023-04-02T03:42:29;26.17;;;3.25;;
9783;SDS011;4931;44.874;-1.092;2023-04-02T03:45:09;20.80;;;3.15;;
9783;SDS011;4931;44.874;-1.092;2023-04-02T03:47:46;16.45;;;2.30;;
9783;SDS011;4931;44.874;-1.092;2023-04-02T03:53:05;18.17;;;2.38;;
9783;SDS011;4931;44.874;-1.092;2023-04-02T03:55:36;12.40;;;2.40;;
9783;SDS011;4931;44.874;-1.092;2023-04-02T03:58:10;19.20;;;2.20;;
9783;SDS011;4931;44.874;-1.092;2023-04-02T04:01:00;17.95;;;2.20;;
9783;SDS011;4931;44.874;-1.092;2023-04-02T04:03:51;10.82;;;1.67;;
9783;SDS011;4931;44.874;-1.092;2023-04-02T04:06:20;16.75;;;2.55;;
9783;SDS011;4931;44.874;-1.092;2023-04-02T04:08:55;17.00;;;2.30;;
9783;SDS011;4931;44.874;-1.092;2023-04-02T04:11:27;14.18;;;2.17;;
9783;SDS011;4931;44.874;-1.092;2023-04-02T04:14:00;15.85;;;2.95;;
9783;SDS011;4931;44.874;-1.092;2023-04-02T04:16:31;21.60;;;3.10;;
9783;SDS011;4931;44.874;-1.092;2023-04-02T04:19:13;19.25;;;2.90;;
9783;SDS011;4931;44.874;-1.092;2023-04-02T04:24:58;22.25;;;3.40;;
9783;SDS011;4931;44.874;-1.092;2023-04-02T04:27:27;31.17;;;4.30;;
9783;SDS011;4931;44.874;-1.092;2023-04-02T04:32:31;25.42;;;3.50;;
9783;SDS011;4931;44.874;-1.092;2023-04-02T04:37:54;24.02;;;3.22;;
9783;SDS011;4931;44.874;-1.092;2023-04-02T04:40:45;24.80;;;3.90;;
9783;SDS011;4931;44.874;-1.092;2023-04-02T04:43:17;28.98;;;4.47;;
9783;SDS011;4931;44.874;-1.092;2023-04-02T04:46:05;23.55;;;4.28;;
9783;SDS011;4931;44.874;-1.092;2023-04-02T04:51:23;26.50;;;3.63;;
9783;SDS011;4931;44.874;-1.092;2023-04-02T04:53:52;36.05;;;4.10;;
9783;SDS011;4931;44.874;-1.092;2023-04-02T04:56:23;24.65;;;4.22;;
9783;SDS011;4931;44.874;-1.092;2023-04-02T05:04:39;30.58;;;4.65;;
9783;SDS011;4931;44.874;-1.092;2023-04-02T05:09:36;37.70;;;5.45;;
9783;SDS011;4931;44.874;-1.092;2023-04-02T05:15:12;33.10;;;5.53;;
9783;SDS011;4931;44.874;-1.092;2023-04-02T05:17:50;33.25;;;4.20;;
9783;SDS011;4931;44.874;-1.092;2023-04-02T05:20:32;27.48;;;4.93;;
9783;SDS011;4931;44.874;-1.092;2023-04-02T05:25:49;30.83;;;4.53;;
9783;SDS011;4931;44.874;-1.092;2023-04-02T05:28:20;35.05;;;5.32;;
9783;SDS011;4931;44.874;-1.092;2023-04-02T05:30:53;33.47;;;4.30;;
9783;SDS011;4931;44.874;-1.092;2023-04-02T05:33:27;38.08;;;5.45;;
9783;SDS011;4931;44.874;-1.092;2023-04-02T05:36:04;26.63;;;4.53;;
9783;SDS011;4931;44.874;-1.092;2023-04-02T05:38:36;22.40;;;4.50;;
9783;SDS011;4931;44.874;-1.092;2023-04-02T05:41:46;20.00;;;4.60;;
9783;SDS011;4931;44.874;-1.092;2023-04-02T05:44:04;21.45;;;4.00;;
9783;SDS011;4931;44.874;-1.092;2023-04-02T05:46:50;31.50;;;4.72;;
9783;SDS011;4931;44.874;-1.092;2023-04-02T05:49:31;19.27;;;4.05;;
9783;SDS011;4931;44.874;-1.092;2023-04-02T05:52:07;32.33;;;4.50;;
9783;SDS011;4931;44.874;-1.092;2023-04-02T05:54:45;22.67;;;4.55;;
9783;SDS011;4931;44.874;-1.092;2023-04-02T05:57:18;28.42;;;4.28;;
9783;SDS011;4931;44.874;-1.092;2023-04-02T05:59:48;30.13;;;4.47;;
9783;SDS011;4931;44.874;-1.092;2023-04-02T06:04:57;21.73;;;4.03;;
9783;SDS011;4931;44.874;-1.092;2023-04-02T06:07:49;26.40;;;4.82;;
9783;SDS011;4931;44.874;-1.092;2023-04-02T06:12:57;28.98;;;4.75;;
9783;SDS011;4931;44.874;-1.092;2023-04-02T06:15:28;28.50;;;4.73;;
9783;SDS011;4931;44.874;-1.092;2023-04-02T06:17:59;30.75;;;5.20;;
9783;SDS011;4931;44.874;-1.092;2023-04-02T06:20:43;26.85;;;4.32;;
9783;SDS011;4931;44.874;-1.092;2023-04-02T06:23:11;24.25;;;5.13;;
9783;SDS011;4931;44.874;-1.092;2023-04-02T06:28:49;29.73;;;4.72;;
9783;SDS011;4931;44.874;-1.092;2023-04-02T06:33:49;26.85;;;4.07;;
9783;SDS011;4931;44.874;-1.092;2023-04-02T06:36:17;31.60;;;4.30;;
9783;SDS011;4931;44.874;-1.092;2023-04-02T06:38:43;20.35;;;4.53;;
9783;SDS011;4931;44.874;-1.092;2023-04-02T06:41:15;21.65;;;3.97;;
9783;SDS011;4931;44.874;-1.092;2023-04-02T06:43:54;25.70;;;4.22;;
9783;SDS011;4931;44.874;-1.092;2023-04-02T06:46:31;27.55;;;4.43;;
9783;SDS011;4931;44.874;-1.092;2023-04-02T06:51:37;29.23;;;4.50;;
9783;SDS011;4931;44.874;-1.092;2023-04-02T06:54:06;24.48;;;4.70;;
9783;SDS011;4931;44.874;-1.092;2023-04-02T06:56:45;28.52;;;4.40;;
9783;SDS011;4931;44.874;-1.092;2023-04-02T06:59:12;26.02;;;4.45;;
9783;SDS011;4931;44.874;-1.092;2023-04-02T07:01:47;28.70;;;4.70;;
9783;SDS011;4931;44.874;-1.092;2023-04-02T07:04:19;26.25;;;3.78;;
9783;SDS011;4931;44.874;-1.092;2023-04-02T07:06:45;16.25;;;3.80;;
9783;SDS011;4931;44.874;-1.092;2023-04-02T07:09:11;18.17;;;3.78;;
9783;SDS011;4931;44.874;-1.092;2023-04-02T07:11:37;25.88;;;4.45;;
9783;SDS011;4931;44.874;-1.092;2023-04-02T07:14:03;32.55;;;4.25;;
9783;SDS011;4931;44.874;-1.092;2023-04-02T07:16:29;20.35;;;3.83;;
9783;SDS011;4931;44.874;-1.092;2023-04-02T07:18:56;23.42;;;4.47;;
9783;SDS011;4931;44.874;-1.092;2023-04-02T07:21:27;18.55;;;3.55;;
9783;SDS011;4931;44.874;-1.092;2023-04-02T07:23:52;18.23;;;3.80;;
9783;SDS011;4931;44.874;-1.092;2023-04-02T07:26:19;16.75;;;3.10;;
9783;SDS011;4931;44.874;-1.092;2023-04-02T07:28:50;27.60;;;4.20;;
9783;SDS011;4931;44.874;-1.092;2023-04-02T07:31:20;21.98;;;3.95;;
9783;SDS011;4931;44.874;-1.092;2023-04-02T07:33:50;25.33;;;4.00;;
9783;SDS011;4931;44.874;-1.092;2023-04-02T07:36:22;15.63;;;3.70;;
9783;SDS011;4931;44.874;-1.092;2023-04-02T07:38:48;19.20;;;3.58;;
9783;SDS011;4931;44.874;-1.092;2023-04-02T07:41:14;16.50;;;3.03;;
9783;SDS011;4931;44.874;-1.092;2023-04-02T07:43:40;22.83;;;3.45;;
9783;SDS011;4931;44.874;-1.092;2023-04-02T07:46:07;23.42;;;3.92;;
9783;SDS011;4931;44.874;-1.092;2023-04-02T07:48:33;20.05;;;3.38;;
9783;SDS011;4931;44.874;-1.092;2023-04-02T07:50:59;15.20;;;3.25;;
9783;SDS011;4931;44.874;-1.092;2023-04-02T07:55:54;15.77;;;3.35;;
9783;SDS011;4931;44.874;-1.092;2023-04-02T07:58:21;18.00;;;3.13;;
9783;SDS011;4931;44.874;-1.092;2023-04-02T08:00:46;19.50;;;3.50;;
9783;SDS011;4931;44.874;-1.092;2023-04-02T08:03:12;26.98;;;3.60;;
9783;SDS011;4931;44.874;-1.092;2023-04-02T08:05:38;20.55;;;3.20;;
9783;SDS011;4931;44.874;-1.092;2023-04-02T08:08:04;23.95;;;3.78;;
9783;SDS011;4931;44.874;-1.092;2023-04-02T08:10:30;21.90;;;3.08;;
9783;SDS011;4931;44.874;-1.092;2023-04-02T08:12:55;26.15;;;3.55;;
9783;SDS011;4931;44.874;-1.092;2023-04-02T08:15:21;23.83;;;3.55;;
9783;SDS011;4931;44.874;-1.092;2023-04-02T08:17:46;23.23;;;3.22;;
9783;SDS011;4931;44.874;-1.092;2023-04-02T08:20:16;23.80;;;3.58;;
9783;SDS011;4931;44.874;-1.092;2023-04-02T08:22:47;19.27;;;2.85;;
9783;SDS011;4931;44.874;-1.092;2023-04-02T08:25:13;23.88;;;3.08;;
9783;SDS011;4931;44.874;-1.092;2023-04-02T08:27:39;21.05;;;3.67;;
9783;SDS011;4931;44.874;-1.092;2023-04-02T08:30:06;14.15;;;2.88;;
9783;SDS011;4931;44.874;-1.092;2023-04-02T08:32:32;17.63;;;2.95;;
9783;SDS011;4931;44.874;-1.092;2023-04-02T08:34:58;16.13;;;3.10;;
9783;SDS011;4931;44.874;-1.092;2023-04-02T08:37:23;18.10;;;3.05;;
9783;SDS011;4931;44.874;-1.092;2023-04-02T08:39:49;14.80;;;2.28;;
9783;SDS011;4931;44.874;-1.092;2023-04-02T08:42:32;19.10;;;3.10;;
9783;SDS011;4931;44.874;-1.092;2023-04-02T08:47:52;17.73;;;3.08;;
9783;SDS011;4931;44.874;-1.092;2023-04-02T08:52:46;21.35;;;2.58;;
9783;SDS011;4931;44.874;-1.092;2023-04-02T08:55:16;20.33;;;3.22;;
9783;SDS011;4931;44.874;-1.092;2023-04-02T08:57:53;20.70;;;3.50;;
9783;SDS011;4931;44.874;-1.092;2023-04-02T09:00:35;21.67;;;2.95;;
9783;SDS011;4931;44.874;-1.092;2023-04-02T09:03:07;15.40;;;2.42;;
9783;SDS011;4931;44.874;-1.092;2023-04-02T09:05:40;12.75;;;2.25;;
9783;SDS011;4931;44.874;-1.092;2023-04-02T09:08:18;15.90;;;2.95;;
9783;SDS011;4931;44.874;-1.092;2023-04-02T09:10:50;21.17;;;2.80;;
9783;SDS011;4931;44.874;-1.092;2023-04-02T09:13:23;18.48;;;2.42;;
9783;SDS011;4931;44.874;-1.092;2023-04-02T09:15:55;17.85;;;2.67;;
9783;SDS011;4931;44.874;-1.092;2023-04-02T09:18:25;18.98;;;2.75;;
9783;SDS011;4931;44.874;-1.092;2023-04-02T09:20:53;17.15;;;3.00;;
9783;SDS011;4931;44.874;-1.092;2023-04-02T09:23:19;14.32;;;2.67;;
9783;SDS011;4931;44.874;-1.092;2023-04-02T09:25:48;17.02;;;3.10;;
9783;SDS011;4931;44.874;-1.092;2023-04-02T09:28:17;18.58;;;3.35;;
9783;SDS011;4931;44.874;-1.092;2023-04-02T09:33:55;20.17;;;2.72;;
9783;SDS011;4931;44.874;-1.092;2023-04-02T09:39:04;20.52;;;3.00;;
9783;SDS011;4931;44.874;-1.092;2023-04-02T09:41:47;17.73;;;2.72;;
9783;SDS011;4931;44.874;-1.092;2023-04-02T09:44:17;17.00;;;2.83;;
9783;SDS011;4931;44.874;-1.092;2023-04-02T09:46:53;17.25;;;2.75;;
9783;SDS011;4931;44.874;-1.092;2023-04-02T09:49:32;15.90;;;2.40;;
9783;SDS011;4931;44.874;-1.092;2023-04-02T09:52:19;15.70;;;2.20;;
9783;SDS011;4931;44.874;-1.092;2023-04-02T09:54:46;13.80;;;1.73;;
9783;SDS011;4931;44.874;-1.092;2023-04-02T09:57:32;15.38;;;2.40;;
9783;SDS011;4931;44.874;-1.092;2023-04-02T10:05:42;8.43;;;1.60;;
9783;SDS011;4931;44.874;-1.092;2023-04-02T10:08:17;9.95;;;1.48;;
9783;SDS011;4931;44.874;-1.092;2023-04-02T10:11:07;13.00;;;1.98;;
9783;SDS011;4931;44.874;-1.092;2023-04-02T10:18:56;10.98;;;1.90;;
9783;SDS011;4931;44.874;-1.092;2023-04-02T10:21:26;13.73;;;1.95;;
9783;SDS011;4931;44.874;-1.092;2023-04-02T10:23:53;13.20;;;1.80;;
9783;SDS011;4931;44.874;-1.092;2023-04-02T10:37:41;16.27;;;2.25;;
9783;SDS011;4931;44.874;-1.092;2023-04-02T10:40:41;11.07;;;1.33;;
9783;SDS011;4931;44.874;-1.092;2023-04-02T10:48:39;11.50;;;1.85;;
9783;SDS011;4931;44.874;-1.092;2023-04-02T10:51:40;19.15;;;2.67;;
9783;SDS011;4931;44.874;-1.092;2023-04-02T10:54:19;7.05;;;1.60;;
9783;SDS011;4931;44.874;-1.092;2023-04-02T10:56:52;10.20;;;1.60;;
9783;SDS011;4931;44.874;-1.092;2023-04-02T10:59:32;15.75;;;2.05;;
9783;SDS011;4931;44.874;-1.092;2023-04-02T11:02:00;11.10;;;1.65;;
9783;SDS011;4931;44.874;-1.092;2023-04-02T11:04:40;10.70;;;1.58;;
9783;SDS011;4931;44.874;-1.092;2023-04-02T11:07:13;14.40;;;2.67;;
9783;SDS011;4931;44.874;-1.092;2023-04-02T11:09:45;11.07;;;1.70;;
9783;SDS011;4931;44.874;-1.092;2023-04-02T11:15:22;11.65;;;2.00;;
9783;SDS011;4931;44.874;-1.092;2023-04-02T11:17:48;11.68;;;2.03;;
9783;SDS011;4931;44.874;-1.092;2023-04-02T11:23:15;8.25;;;1.95;;
9783;SDS011;4931;44.874;-1.092;2023-04-02T11:25:43;9.85;;;1.73;;
9783;SDS011;4931;44.874;-1.092;2023-04-02T11:30:52;9.52;;;1.48;;
9783;SDS011;4931;44.874;-1.092;2023-04-02T11:33:36;7.40;;;1.30;;
9783;SDS011;4931;44.874;-1.092;2023-04-02T11:39:43;6.60;;;1.27;;
9783;SDS011;4931;44.874;-1.092;2023-04-02T11:42:27;6.80;;;1.40;;
9783;SDS011;4931;44.874;-1.092;2023-04-02T11:50:46;5.50;;;1.10;;
9783;SDS011;4931;44.874;-1.092;2023-04-02T11:55:43;10.45;;;1.60;;
9783;SDS011;4931;44.874;-1.092;2023-04-02T12:11:52;12.18;;;1.65;;
9783;SDS011;4931;44.874;-1.092;2023-04-02T12:19:54;12.23;;;1.58;;
9783;SDS011;4931;44.874;-1.092;2023-04-02T12:22:26;11.48;;;1.58;;
9783;SDS011;4931;44.874;-1.092;2023-04-02T12:24:55;13.52;;;1.83;;
9783;SDS011;4931;44.874;-1.092;2023-04-02T12:27:26;10.18;;;1.80;;
9783;SDS011;4931;44.874;-1.092;2023-04-02T12:29:54;10.98;;;1.80;;
9783;SDS011;4931;44.874;-1.092;2023-04-02T12:32:34;12.18;;;1.60;;
9783;SDS011;4931;44.874;-1.092;2023-04-02T12:34:59;13.82;;;1.92;;
9783;SDS011;4931;44.874;-1.092;2023-04-02T12:37:27;11.75;;;1.85;;
9783;SDS011;4931;44.874;-1.092;2023-04-02T12:39:56;11.25;;;2.08;;
9783;SDS011;4931;44.874;-1.092;2023-04-02T12:44:53;8.60;;;1.40;;
9783;SDS011;4931;44.874;-1.092;2023-04-02T12:47:18;8.68;;;1.45;;
9783;SDS011;4931;44.874;-1.092;2023-04-02T12:49:44;7.55;;;1.40;;
9783;SDS011;4931;44.874;-1.092;2023-04-02T12:52:12;8.40;;;1.48;;
9783;SDS011;4931;44.874;-1.092;2023-04-02T12:54:47;4.57;;;1.10;;
9783;SDS011;4931;44.874;-1.092;2023-04-02T12:59:50;4.80;;;1.50;;
9783;SDS011;4931;44.874;-1.092;2023-04-02T13:02:18;7.60;;;1.23;;
9783;SDS011;4931;44.874;-1.092;2023-04-02T13:04:55;7.45;;;1.33;;
9783;SDS011;4931;44.874;-1.092;2023-04-02T13:07:25;12.25;;;1.52;;
9783;SDS011;4931;44.874;-1.092;2023-04-02T13:09:53;13.02;;;1.70;;
9783;SDS011;4931;44.874;-1.092;2023-04-02T13:15:05;9.85;;;1.73;;
9783;SDS011;4931;44.874;-1.092;2023-04-02T13:17:43;9.50;;;1.80;;
9783;SDS011;4931;44.874;-1.092;2023-04-02T13:25:53;11.65;;;1.50;;
9783;SDS011;4931;44.874;-1.092;2023-04-02T13:28:24;10.35;;;1.80;;
9783;SDS011;4931;44.874;-1.092;2023-04-02T13:30:49;9.07;;;1.67;;
9783;SDS011;4931;44.874;-1.092;2023-04-02T13:33:15;10.73;;;1.75;;
9783;SDS011;4931;44.874;-1.092;2023-04-02T13:35:41;12.90;;;2.00;;
9783;SDS011;4931;44.874;-1.092;2023-04-02T13:38:07;8.57;;;1.75;;
9783;SDS011;4931;44.874;-1.092;2023-04-02T13:40:33;20.50;;;7.38;;
9783;SDS011;4931;44.874;-1.092;2023-04-02T13:43:01;5.30;;;1.30;;
9783;SDS011;4931;44.874;-1.092;2023-04-02T13:45:35;10.02;;;1.80;;
9783;SDS011;4931;44.874;-1.092;2023-04-02T13:48:02;11.48;;;1.67;;
9783;SDS011;4931;44.874;-1.092;2023-04-02T13:53:45;9.25;;;1.50;;
9783;SDS011;4931;44.874;-1.092;2023-04-02T13:56:13;7.35;;;1.60;;
9783;SDS011;4931;44.874;-1.092;2023-04-02T13:58:38;8.05;;;1.50;;
9783;SDS011;4931;44.874;-1.092;2023-04-02T14:01:04;9.52;;;1.50;;
9783;SDS011;4931;44.874;-1.092;2023-04-02T14:03:29;14.55;;;2.10;;
9783;SDS011;4931;44.874;-1.092;2023-04-02T14:11:29;17.13;;;5.45;;
9783;SDS011;4931;44.874;-1.092;2023-04-02T14:17:08;8.05;;;2.05;;
9783;SDS011;4931;44.874;-1.092;2023-04-02T14:45:01;11.05;;;2.20;;
9783;SDS011;4931;44.874;-1.092;2023-04-02T14:47:34;11.23;;;2.28;;
9783;SDS011;4931;44.874;-1.092;2023-04-02T14:50:47;8.05;;;2.10;;
9783;SDS011;4931;44.874;-1.092;2023-04-02T14:52:57;10.30;;;2.20;;
9783;SDS011;4931;44.874;-1.092;2023-04-02T14:57:53;11.20;;;2.03;;
9783;SDS011;4931;44.874;-1.092;2023-04-02T15:08:04;11.43;;;2.50;;
9783;SDS011;4931;44.874;-1.092;2023-04-02T15:13:22;13.52;;;3.10;;
9783;SDS011;4931;44.874;-1.092;2023-04-02T15:15:57;13.93;;;2.67;;
9783;SDS011;4931;44.874;-1.092;2023-04-02T15:18:47;14.70;;;2.53;;
9783;SDS011;4931;44.874;-1.092;2023-04-02T15:43:44;15.38;;;3.38;;
9783;SDS011;4931;44.874;-1.092;2023-04-02T15:49:07;14.30;;;3.03;;
9783;SDS011;4931;44.874;-1.092;2023-04-02T15:54:18;7.63;;;2.03;;
9783;SDS011;4931;44.874;-1.092;2023-04-02T15:56:50;10.40;;;2.90;;
9783;SDS011;4931;44.874;-1.092;2023-04-02T16:05:17;14.50;;;2.83;;
9783;SDS011;4931;44.874;-1.092;2023-04-02T16:07:52;13.57;;;2.70;;
9783;SDS011;4931;44.874;-1.092;2023-04-02T16:10:36;15.55;;;2.92;;
9783;SDS011;4931;44.874;-1.092;2023-04-02T16:21:14;7.85;;;2.25;;
9783;SDS011;4931;44.874;-1.092;2023-04-02T16:23:44;13.75;;;2.33;;
9783;SDS011;4931;44.874;-1.092;2023-04-02T16:53:30;11.48;;;1.90;;
9783;SDS011;4931;44.874;-1.092;2023-04-02T16:56:07;7.80;;;1.95;;
9783;SDS011;4931;44.874;-1.092;2023-04-02T17:01:32;9.57;;;1.85;;
9783;SDS011;4931;44.874;-1.092;2023-04-02T17:09:30;7.45;;;1.65;;
9783;SDS011;4931;44.874;-1.092;2023-04-02T17:17:46;9.40;;;1.63;;
9783;SDS011;4931;44.874;-1.092;2023-04-02T17:20:21;11.70;;;2.22;;
9783;SDS011;4931;44.874;-1.092;2023-04-02T17:22:49;6.47;;;1.45;;
9783;SDS011;4931;44.874;-1.092;2023-04-02T17:25:34;8.65;;;2.03;;
9783;SDS011;4931;44.874;-1.092;2023-04-02T17:28:04;8.32;;;1.48;;
9783;SDS011;4931;44.874;-1.092;2023-04-02T17:30:39;9.82;;;1.48;;
9783;SDS011;4931;44.874;-1.092;2023-04-02T17:33:11;5.90;;;1.38;;
9783;SDS011;4931;44.874;-1.092;2023-04-02T17:35:49;6.43;;;1.20;;
9783;SDS011;4931;44.874;-1.092;2023-04-02T17:38:22;7.65;;;1.55;;
9783;SDS011;4931;44.874;-1.092;2023-04-02T17:41:19;8.10;;;1.52;;
9783;SDS011;4931;44.874;-1.092;2023-04-02T17:46:49;11.07;;;1.85;;
9783;SDS011;4931;44.874;-1.092;2023-04-02T17:57:21;11.20;;;2.08;;
9783;SDS011;4931;44.874;-1.092;2023-04-02T18:00:37;11.48;;;2.03;;
9783;SDS011;4931;44.874;-1.092;2023-04-02T18:06:11;13.63;;;2.45;;
9783;SDS011;4931;44.874;-1.092;2023-04-02T18:14:39;7.93;;;2.17;;
9783;SDS011;4931;44.874;-1.092;2023-04-02T18:17:10;9.38;;;2.13;;
9783;SDS011;4931;44.874;-1.092;2023-04-02T18:20:02;10.93;;;2.25;;
9783;SDS011;4931;44.874;-1.092;2023-04-02T18:22:41;6.65;;;1.88;;
9783;SDS011;4931;44.874;-1.092;2023-04-02T18:25:19;13.23;;;2.28;;
9783;SDS011;4931;44.874;-1.092;2023-04-02T18:27:57;12.73;;;2.13;;
9783;SDS011;4931;44.874;-1.092;2023-04-02T18:33:32;9.18;;;2.33;;
9783;SDS011;4931;44.874;-1.092;2023-04-02T18:36:09;12.02;;;1.90;;
9783;SDS011;4931;44.874;-1.092;2023-04-02T18:41:42;13.55;;;2.40;;
9783;SDS011;4931;44.874;-1.092;2023-04-02T18:44:24;8.25;;;2.28;;
9783;SDS011;4931;44.874;-1.092;2023-04-02T18:49:49;13.32;;;2.38;;
9783;SDS011;4931;44.874;-1.092;2023-04-02T18:52:21;12.23;;;2.25;;
9783;SDS011;4931;44.874;-1.092;2023-04-02T18:54:53;10.30;;;2.25;;
9783;SDS011;4931;44.874;-1.092;2023-04-02T18:57:33;16.52;;;2.47;;
9783;SDS011;4931;44.874;-1.092;2023-04-02T19:08:33;13.60;;;2.50;;
9783;SDS011;4931;44.874;-1.092;2023-04-02T19:11:05;12.98;;;2.28;;
9783;SDS011;4931;44.874;-1.092;2023-04-02T19:13:35;13.07;;;2.40;;
9783;SDS011;4931;44.874;-1.092;2023-04-02T19:29:52;8.10;;;1.98;;
9783;SDS011;4931;44.874;-1.092;2023-04-02T19:38:14;7.43;;;1.80;;
9783;SDS011;4931;44.874;-1.092;2023-04-02T19:41:10;12.07;;;2.00;;
9783;SDS011;4931;44.874;-1.092;2023-04-02T19:43:48;13.25;;;2.17;;
9783;SDS011;4931;44.874;-1.092;2023-04-02T19:46:14;7.70;;;2.08;;
9783;SDS011;4931;44.874;-1.092;2023-04-02T19:51:14;6.70;;;1.90;;
9783;SDS011;4931;44.874;-1.092;2023-04-02T19:53:39;8.55;;;1.90;;
9783;SDS011;4931;44.874;-1.092;2023-04-02T19:56:05;11.05;;;1.90;;
9783;SDS011;4931;44.874;-1.092;2023-04-02T19:58:34;8.13;;;2.30;;
9783;SDS011;4931;44.874;-1.092;2023-04-02T20:01:00;10.73;;;2.30;;
9783;SDS011;4931;44.874;-1.092;2023-04-02T20:03:26;6.32;;;2.08;;
9783;SDS011;4931;44.874;-1.092;2023-04-02T20:05:51;8.40;;;1.98;;
9783;SDS011;4931;44.874;-1.092;2023-04-02T20:08:17;7.80;;;1.90;;
9783;SDS011;4931;44.874;-1.092;2023-04-02T20:10:43;9.30;;;2.15;;
9783;SDS011;4931;44.874;-1.092;2023-04-02T20:13:08;9.45;;;2.42;;
9783;SDS011;4931;44.874;-1.092;2023-04-02T20:15:34;8.05;;;2.08;;
9783;SDS011;4931;44.874;-1.092;2023-04-02T20:18:00;9.00;;;2.00;;
9783;SDS011;4931;44.874;-1.092;2023-04-02T20:20:26;9.18;;;2.00;;
9783;SDS011;4931;44.874;-1.092;2023-04-02T20:22:52;7.22;;;1.70;;
9783;SDS011;4931;44.874;-1.092;2023-04-02T20:25:17;11.25;;;1.95;;
9783;SDS011;4931;44.874;-1.092;2023-04-02T20:27:43;9.15;;;2.15;;
9783;SDS011;4931;44.874;-1.092;2023-04-02T20:30:09;8.07;;;2.10;;
9783;SDS011;4931;44.874;-1.092;2023-04-02T20:32:35;9.35;;;2.00;;
9783;SDS011;4931;44.874;-1.092;2023-04-02T20:35:01;9.63;;;2.13;;
9783;SDS011;4931;44.874;-1.092;2023-04-02T20:37:27;12.30;;;2.55;;
9783;SDS011;4931;44.874;-1.092;2023-04-02T20:39:53;8.95;;;2.28;;
9783;SDS011;4931;44.874;-1.092;2023-04-02T20:42:18;9.68;;;2.42;;
9783;SDS011;4931;44.874;-1.092;2023-04-02T20:44:44;12.32;;;2.17;;
9783;SDS011;4931;44.874;-1.092;2023-04-02T20:47:10;12.48;;;2.17;;
9783;SDS011;4931;44.874;-1.092;2023-04-02T20:49:36;13.10;;;2.20;;
9783;SDS011;4931;44.874;-1.092;2023-04-02T20:52:01;9.18;;;2.83;;
9783;SDS011;4931;44.874;-1.092;2023-04-02T20:54:27;10.40;;;2.30;;
9783;SDS011;4931;44.874;-1.092;2023-04-02T20:56:53;14.13;;;2.53;;
9783;SDS011;4931;44.874;-1.092;2023-04-02T20:59:18;15.40;;;2.28;;
9783;SDS011;4931;44.874;-1.092;2023-04-02T21:01:44;14.40;;;2.08;;
9783;SDS011;4931;44.874;-1.092;2023-04-02T21:04:10;8.30;;;2.25;;
9783;SDS011;4931;44.874;-1.092;2023-04-02T21:06:36;9.13;;;2.35;;
9783;SDS011;4931;44.874;-1.092;2023-04-02T21:09:04;11.90;;;2.40;;
9783;SDS011;4931;44.874;-1.092;2023-04-02T21:11:32;12.40;;;2.30;;
9783;SDS011;4931;44.874;-1.092;2023-04-02T21:13:57;12.25;;;2.20;;
9783;SDS011;4931;44.874;-1.092;2023-04-02T21:16:27;16.00;;;2.50;;
9783;SDS011;4931;44.874;-1.092;2023-04-02T21:18:54;9.52;;;2.40;;
9783;SDS011;4931;44.874;-1.092;2023-04-02T21:21:22;11.18;;;2.15;;
9783;SDS011;4931;44.874;-1.092;2023-04-02T21:23:52;12.88;;;2.25;;
9783;SDS011;4931;44.874;-1.092;2023-04-02T21:26:19;13.77;;;2.28;;
9783;SDS011;4931;44.874;-1.092;2023-04-02T21:28:45;9.45;;;2.13;;